Sittingbourne, United Kingdom
Current Conditions -  °F | °C
As of 7:20 PM on Saturday 25 Oct 2014 (Local Time) from EGMC Reporting Station
Few Clouds Few Clouds  
Wind Chill: 54°   Ceiling: Unl
Heat Index: 54°   Visibility: 6mi
Dew Point: 46°   Wind: 9mph
Humidity: 77%   Direction: 220°SW
Pressure: 30.12"   Gusts: NA
Location:  51.34°N, 0.73°E
Report Text: EGMC 251820Z 22008KT 9999 FEW040 12/08 Q1020
Loading
Personal Weather Stations






























Interactive Weather Map
Tropical Storm Tracking
New forecast layout! Learn more

10-Day Weather Forecast

Advertisements
Track Severe Weather on mobile